sensor_id;sensor_type;location;lat;lon;timestamp;pressure;altitude;pressure_sealevel;temperature;humidity
23433;BME280;41331;45.412;10.992;2022-07-12T00:00:00;101261.03;;;24.29;54.76
23433;BME280;41331;45.412;10.992;2022-07-12T00:02:27;101260.28;;;24.22;54.03
23433;BME280;41331;45.412;10.992;2022-07-12T00:04:54;101260.28;;;24.22;54.22
23433;BME280;41331;45.412;10.992;2022-07-12T00:07:22;101259.91;;;24.20;54.31
23433;BME280;41331;45.412;10.992;2022-07-12T00:09:50;101258.28;;;24.22;53.62
23433;BME280;41331;45.412;10.992;2022-07-12T00:12:17;101259.06;;;24.26;53.06
23433;BME280;41331;45.412;10.992;2022-07-12T00:14:45;101258.28;;;24.19;53.06
23433;BME280;41331;45.412;10.992;2022-07-12T00:17:12;101255.09;;;24.24;52.87
23433;BME280;41331;45.412;10.992;2022-07-12T00:19:40;101255.50;;;24.26;52.50
23433;BME280;41331;45.412;10.992;2022-07-12T00:22:07;101253.09;;;24.24;52.53
23433;BME280;41331;45.412;10.992;2022-07-12T00:24:35;101255.94;;;24.03;52.99
23433;BME280;41331;45.412;10.992;2022-07-12T00:27:02;101253.59;;;24.05;53.04
23433;BME280;41331;45.412;10.992;2022-07-12T00:29:30;101240.81;;;24.22;52.32
23433;BME280;41331;45.412;10.992;2022-07-12T00:31:57;101242.38;;;24.26;51.96
23433;BME280;41331;45.412;10.992;2022-07-12T00:34:25;101245.91;;;24.34;51.48
23433;BME280;41331;45.412;10.992;2022-07-12T00:36:52;101248.75;;;24.31;51.09
23433;BME280;41331;45.412;10.992;2022-07-12T00:39:20;101245.97;;;24.31;51.23
23433;BME280;41331;45.412;10.992;2022-07-12T00:41:50;101259.88;;;24.31;51.18
23433;BME280;41331;45.412;10.992;2022-07-12T00:44:17;101256.28;;;24.30;51.29
23433;BME280;41331;45.412;10.992;2022-07-12T00:46:45;101252.69;;;24.33;51.12
23433;BME280;41331;45.412;10.992;2022-07-12T00:49:13;101245.56;;;24.28;51.66
23433;BME280;41331;45.412;10.992;2022-07-12T00:51:43;101252.31;;;24.24;51.70
23433;BME280;41331;45.412;10.992;2022-07-12T00:54:11;101249.53;;;24.24;51.96
23433;BME280;41331;45.412;10.992;2022-07-12T00:56:39;101252.72;;;24.40;51.70
23433;BME280;41331;45.412;10.992;2022-07-12T00:59:06;101242.31;;;24.48;51.31
23433;BME280;41331;45.412;10.992;2022-07-12T01:01:34;101248.31;;;24.43;51.14
23433;BME280;41331;45.412;10.992;2022-07-12T01:04:01;101250.31;;;24.39;51.73
23433;BME280;41331;45.412;10.992;2022-07-12T01:06:30;101247.91;;;24.34;51.96
23433;BME280;41331;45.412;10.992;2022-07-12T01:08:58;101247.94;;;24.37;51.71
23433;BME280;41331;45.412;10.992;2022-07-12T01:11:26;101245.56;;;24.36;51.80
23433;BME280;41331;45.412;10.992;2022-07-12T01:13:54;101248.31;;;24.32;52.10
23433;BME280;41331;45.412;10.992;2022-07-12T01:16:24;101250.72;;;24.26;52.39
23433;BME280;41331;45.412;10.992;2022-07-12T01:18:53;101256.28;;;24.37;51.96
23433;BME280;41331;45.412;10.992;2022-07-12T01:21:22;101255.41;;;24.54;51.56
23433;BME280;41331;45.412;10.992;2022-07-12T01:23:50;101261.81;;;24.44;51.56
23433;BME280;41331;45.412;10.992;2022-07-12T01:26:18;101254.28;;;24.41;51.76
23433;BME280;41331;45.412;10.992;2022-07-12T01:28:47;101252.63;;;24.54;51.14
23433;BME280;41331;45.412;10.992;2022-07-12T01:31:15;101241.97;;;24.42;51.30
23433;BME280;41331;45.412;10.992;2022-07-12T01:33:43;101243.47;;;24.54;51.05
23433;BME280;41331;45.412;10.992;2022-07-12T01:36:10;101247.16;;;24.40;51.89
23433;BME280;41331;45.412;10.992;2022-07-12T01:38:38;101242.75;;;24.46;51.71
23433;BME280;41331;45.412;10.992;2022-07-12T01:41:05;101249.88;;;24.44;51.78
23433;BME280;41331;45.412;10.992;2022-07-12T01:43:33;101241.94;;;24.46;51.80
23433;BME280;41331;45.412;10.992;2022-07-12T01:46:00;101243.94;;;24.45;51.53
23433;BME280;41331;45.412;10.992;2022-07-12T01:48:28;101245.16;;;24.37;52.22
23433;BME280;41331;45.412;10.992;2022-07-12T01:50:55;101250.31;;;24.39;52.13
23433;BME280;41331;45.412;10.992;2022-07-12T01:53:23;101247.09;;;24.47;51.82
23433;BME280;41331;45.412;10.992;2022-07-12T01:55:50;101241.50;;;24.54;52.05
23433;BME280;41331;45.412;10.992;2022-07-12T01:58:18;101236.72;;;24.59;51.96
23433;BME280;41331;45.412;10.992;2022-07-12T02:00:46;101241.47;;;24.62;52.27
23433;BME280;41331;45.412;10.992;2022-07-12T02:03:18;101250.97;;;24.68;52.29
23433;BME280;41331;45.412;10.992;2022-07-12T02:05:46;101245.06;;;24.62;52.69
23433;BME280;41331;45.412;10.992;2022-07-12T02:08:14;101248.63;;;24.63;53.21
23433;BME280;41331;45.412;10.992;2022-07-12T02:10:42;101250.97;;;24.71;53.51
23433;BME280;41331;45.412;10.992;2022-07-12T02:13:10;101247.41;;;24.64;54.00
23433;BME280;41331;45.412;10.992;2022-07-12T02:15:37;101249.41;;;24.63;54.36
23433;BME280;41331;45.412;10.992;2022-07-12T02:18:05;101247.78;;;24.69;54.45
23433;BME280;41331;45.412;10.992;2022-07-12T02:20:35;101252.56;;;24.69;54.65
23433;BME280;41331;45.412;10.992;2022-07-12T02:23:02;101247.03;;;24.65;55.01
23433;BME280;41331;45.412;10.992;2022-07-12T02:25:29;101248.63;;;24.63;55.13
23433;BME280;41331;45.412;10.992;2022-07-12T02:27:58;101256.59;;;24.61;55.33
23433;BME280;41331;45.412;10.992;2022-07-12T02:30:25;101254.97;;;24.67;55.27
23433;BME280;41331;45.412;10.992;2022-07-12T02:32:52;101257.03;;;24.56;55.73
23433;BME280;41331;45.412;10.992;2022-07-12T02:35:20;101256.59;;;24.61;55.46
23433;BME280;41331;45.412;10.992;2022-07-12T02:37:48;101255.41;;;24.54;56.28
23433;BME280;41331;45.412;10.992;2022-07-12T02:40:15;101267.34;;;24.55;55.85
23433;BME280;41331;45.412;10.992;2022-07-12T02:43:04;101256.97;;;24.63;55.60
23433;BME280;41331;45.412;10.992;2022-07-12T02:45:31;101255.03;;;24.56;56.07
23433;BME280;41331;45.412;10.992;2022-07-12T02:47:58;101255.41;;;24.58;55.88
23433;BME280;41331;45.412;10.992;2022-07-12T02:50:26;101257.78;;;24.60;56.09
23433;BME280;41331;45.412;10.992;2022-07-12T02:52:53;101263.34;;;24.60;55.98
23433;BME280;41331;45.412;10.992;2022-07-12T02:55:21;101254.22;;;24.56;55.97
23433;BME280;41331;45.412;10.992;2022-07-12T02:57:49;101265.38;;;24.56;56.17
23433;BME280;41331;45.412;10.992;2022-07-12T03:00:16;101259.75;;;24.66;55.42
23433;BME280;41331;45.412;10.992;2022-07-12T03:02:43;101264.16;;;24.60;55.97
23433;BME280;41331;45.412;10.992;2022-07-12T03:05:11;101253.75;;;24.68;55.72
23433;BME280;41331;45.412;10.992;2022-07-12T03:07:38;101252.63;;;24.58;55.91
23433;BME280;41331;45.412;10.992;2022-07-12T03:10:06;101267.72;;;24.61;55.74
23433;BME280;41331;45.412;10.992;2022-07-12T03:12:37;101262.59;;;24.52;55.63
23433;BME280;41331;45.412;10.992;2022-07-12T03:15:05;101269.69;;;24.67;55.67
23433;BME280;41331;45.412;10.992;2022-07-12T03:17:34;101271.25;;;24.65;55.77
23433;BME280;41331;45.412;10.992;2022-07-12T03:20:04;101272.19;;;24.40;56.14
23433;BME280;41331;45.412;10.992;2022-07-12T03:22:38;101276.50;;;24.52;56.12
23433;BME280;41331;45.412;10.992;2022-07-12T03:25:06;101267.00;;;24.42;56.30
23433;BME280;41331;45.412;10.992;2022-07-12T03:27:35;101263.81;;;24.44;56.29
23433;BME280;41331;45.412;10.992;2022-07-12T03:30:10;101270.59;;;24.32;56.92
23433;BME280;41331;45.412;10.992;2022-07-12T03:32:40;101276.56;;;24.31;57.12
23433;BME280;41331;45.412;10.992;2022-07-12T03:35:08;101272.16;;;24.33;57.35
23433;BME280;41331;45.412;10.992;2022-07-12T03:37:44;101275.72;;;24.44;56.78
23433;BME280;41331;45.412;10.992;2022-07-12T03:40:13;101267.81;;;24.32;57.06
23433;BME280;41331;45.412;10.992;2022-07-12T03:42:43;101272.19;;;24.26;57.14
23433;BME280;41331;45.412;10.992;2022-07-12T03:45:12;101277.31;;;24.35;56.75
23433;BME280;41331;45.412;10.992;2022-07-12T03:47:41;101284.53;;;24.36;56.86
23433;BME280;41331;45.412;10.992;2022-07-12T03:50:11;101282.88;;;24.35;56.82
23433;BME280;41331;45.412;10.992;2022-07-12T03:52:44;101286.06;;;24.33;56.95
23433;BME280;41331;45.412;10.992;2022-07-12T03:55:12;101283.31;;;24.22;57.49
23433;BME280;41331;45.412;10.992;2022-07-12T03:57:41;101284.53;;;24.36;56.82
23433;BME280;41331;45.412;10.992;2022-07-12T04:00:09;101294.03;;;24.38;56.57
23433;BME280;41331;45.412;10.992;2022-07-12T04:02:41;101293.63;;;24.33;56.79
23433;BME280;41331;45.412;10.992;2022-07-12T04:05:10;101278.97;;;24.25;56.89
23433;BME280;41331;45.412;10.992;2022-07-12T04:07:38;101289.25;;;24.28;56.84
23433;BME280;41331;45.412;10.992;2022-07-12T04:10:08;101288.88;;;24.26;57.11
23433;BME280;41331;45.412;10.992;2022-07-12T04:12:35;101302.34;;;24.35;56.41
23433;BME280;41331;45.412;10.992;2022-07-12T04:15:06;101301.19;;;24.32;57.01
23433;BME280;41331;45.412;10.992;2022-07-12T04:17:34;101303.16;;;24.39;56.67
23433;BME280;41331;45.412;10.992;2022-07-12T04:20:01;101302.78;;;24.37;56.66
23433;BME280;41331;45.412;10.992;2022-07-12T04:22:29;101299.19;;;24.33;56.88
23433;BME280;41331;45.412;10.992;2022-07-12T04:24:56;101295.66;;;24.36;56.88
23433;BME280;41331;45.412;10.992;2022-07-12T04:27:24;101304.78;;;24.36;56.92
23433;BME280;41331;45.412;10.992;2022-07-12T04:29:53;101305.56;;;24.37;56.92
23433;BME280;41331;45.412;10.992;2022-07-12T04:32:26;101306.34;;;24.41;56.71
23433;BME280;41331;45.412;10.992;2022-07-12T04:34:54;101303.97;;;24.39;56.98
23433;BME280;41331;45.412;10.992;2022-07-12T04:37:22;101297.59;;;24.32;56.97
23433;BME280;41331;45.412;10.992;2022-07-12T04:39:49;101298.38;;;24.43;56.70
23433;BME280;41331;45.412;10.992;2022-07-12T04:42:17;101306.34;;;24.41;56.75
23433;BME280;41331;45.412;10.992;2022-07-12T04:44:44;101296.44;;;24.36;56.86
23433;BME280;41331;45.412;10.992;2022-07-12T04:47:12;101303.56;;;24.37;57.24
23433;BME280;41331;45.412;10.992;2022-07-12T04:49:39;101301.59;;;24.41;56.56
23433;BME280;41331;45.412;10.992;2022-07-12T04:52:06;101293.63;;;24.40;57.00
23433;BME280;41331;45.412;10.992;2022-07-12T04:54:34;101288.47;;;24.31;56.84
23433;BME280;41331;45.412;10.992;2022-07-12T04:57:01;101295.66;;;24.36;56.82
23433;BME280;41331;45.412;10.992;2022-07-12T04:59:29;101307.53;;;24.50;56.89
23433;BME280;41331;45.412;10.992;2022-07-12T05:01:56;101305.47;;;24.65;56.58
23433;BME280;41331;45.412;10.992;2022-07-12T05:04:24;101305.13;;;24.56;56.56
23433;BME280;41331;45.412;10.992;2022-07-12T05:06:52;101304.69;;;24.61;56.40
23433;BME280;41331;45.412;10.992;2022-07-12T05:09:19;101312.94;;;24.79;56.10
23433;BME280;41331;45.412;10.992;2022-07-12T05:11:47;101307.44;;;24.65;56.17
23433;BME280;41331;45.412;10.992;2022-07-12T05:14:14;101320.50;;;24.82;56.02
23433;BME280;41331;45.412;10.992;2022-07-12T05:16:41;101304.66;;;24.72;56.14
23433;BME280;41331;45.412;10.992;2022-07-12T05:19:09;101313.72;;;24.90;56.51
23433;BME280;41331;45.412;10.992;2022-07-12T05:21:37;101312.94;;;24.83;56.45
23433;BME280;41331;45.412;10.992;2022-07-12T05:24:05;101315.38;;;24.77;56.95
23433;BME280;41331;45.412;10.992;2022-07-12T05:26:33;101316.09;;;24.88;56.76
23433;BME280;41331;45.412;10.992;2022-07-12T05:29:02;101320.88;;;24.88;57.21
23433;BME280;41331;45.412;10.992;2022-07-12T05:31:29;101322.44;;;24.89;57.02
23433;BME280;41331;45.412;10.992;2022-07-12T05:33:57;101310.09;;;25.00;56.27
23433;BME280;41331;45.412;10.992;2022-07-12T05:36:24;101321.19;;;25.04;55.95
23433;BME280;41331;45.412;10.992;2022-07-12T05:38:52;101314.09;;;24.92;56.33
23433;BME280;41331;45.412;10.992;2022-07-12T05:41:19;101309.81;;;24.73;57.07
23433;BME280;41331;45.412;10.992;2022-07-12T05:43:47;101316.94;;;24.82;56.82
23433;BME280;41331;45.412;10.992;2022-07-12T05:46:14;101318.88;;;24.85;56.71
23433;BME280;41331;45.412;10.992;2022-07-12T05:48:41;101330.84;;;24.78;56.80
23433;BME280;41331;45.412;10.992;2022-07-12T05:51:09;101345.19;;;24.80;56.92
23433;BME280;41331;45.412;10.992;2022-07-12T05:53:56;101339.22;;;24.74;57.00
23433;BME280;41331;45.412;10.992;2022-07-12T05:56:23;101342.75;;;24.89;57.10
23433;BME280;41331;45.412;10.992;2022-07-12T05:58:50;101349.88;;;24.97;56.92
23433;BME280;41331;45.412;10.992;2022-07-12T06:01:18;101345.03;;;25.16;56.27
23433;BME280;41331;45.412;10.992;2022-07-12T06:03:45;101340.28;;;25.05;56.33
23433;BME280;41331;45.412;10.992;2022-07-12T06:06:13;101348.28;;;24.96;56.69
23433;BME280;41331;45.412;10.992;2022-07-12T06:08:41;101346.72;;;24.92;56.88
23433;BME280;41331;45.412;10.992;2022-07-12T06:11:08;101355.50;;;24.79;57.69
23433;BME280;41331;45.412;10.992;2022-07-12T06:13:36;101351.94;;;24.79;57.65
23433;BME280;41331;45.412;10.992;2022-07-12T06:16:04;101341.16;;;24.88;57.42
23433;BME280;41331;45.412;10.992;2022-07-12T06:18:38;101345.09;;;25.01;57.26
23433;BME280;41331;45.412;10.992;2022-07-12T06:21:06;101345.41;;;25.21;56.67
23433;BME280;41331;45.412;10.992;2022-07-12T06:23:35;101353.03;;;25.07;57.24
23433;BME280;41331;45.412;10.992;2022-07-12T06:26:03;101354.56;;;25.22;57.01
23433;BME280;41331;45.412;10.992;2022-07-12T06:28:30;101359.25;;;25.32;57.09
23433;BME280;41331;45.412;10.992;2022-07-12T06:30:58;101358.69;;;25.55;56.18
23433;BME280;41331;45.412;10.992;2022-07-12T06:33:25;101371.63;;;25.27;56.51
23433;BME280;41331;45.412;10.992;2022-07-12T06:35:53;101360.50;;;25.24;56.56
23433;BME280;41331;45.412;10.992;2022-07-12T06:38:20;101367.28;;;25.23;57.13
23433;BME280;41331;45.412;10.992;2022-07-12T06:40:47;101380.28;;;25.40;56.87
23433;BME280;41331;45.412;10.992;2022-07-12T06:43:15;101383.91;;;25.37;56.61
23433;BME280;41331;45.412;10.992;2022-07-12T06:45:42;101381.91;;;25.41;56.68
23433;BME280;41331;45.412;10.992;2022-07-12T06:48:10;101389.34;;;25.58;56.11
23433;BME280;41331;45.412;10.992;2022-07-12T06:50:37;101393.09;;;25.93;55.69
23433;BME280;41331;45.412;10.992;2022-07-12T06:53:05;101381.94;;;25.93;55.23
23433;BME280;41331;45.412;10.992;2022-07-12T06:55:33;101391.97;;;25.87;55.42
23433;BME280;41331;45.412;10.992;2022-07-12T06:58:00;101392.75;;;25.88;55.49
23433;BME280;41331;45.412;10.992;2022-07-12T07:00:28;101395.03;;;25.41;56.73
23433;BME280;41331;45.412;10.992;2022-07-12T07:02:55;101399.00;;;25.43;57.25
23433;BME280;41331;45.412;10.992;2022-07-12T07:05:25;101391.44;;;25.40;56.88
23433;BME280;41331;45.412;10.992;2022-07-12T07:07:53;101388.13;;;25.60;56.18
23433;BME280;41331;45.412;10.992;2022-07-12T07:10:20;101397.44;;;26.01;55.26
23433;BME280;41331;45.412;10.992;2022-07-12T07:12:50;101404.78;;;25.74;56.10
23433;BME280;41331;45.412;10.992;2022-07-12T07:15:18;101403.94;;;25.84;55.78
23433;BME280;41331;45.412;10.992;2022-07-12T07:17:46;101403.72;;;26.09;55.03
23433;BME280;41331;45.412;10.992;2022-07-12T07:20:14;101406.41;;;26.20;54.83
23433;BME280;41331;45.412;10.992;2022-07-12T07:22:41;101407.59;;;26.22;54.49
23433;BME280;41331;45.412;10.992;2022-07-12T07:25:09;101413.16;;;26.26;54.56
23433;BME280;41331;45.412;10.992;2022-07-12T07:27:36;101412.09;;;26.09;54.94
23433;BME280;41331;45.412;10.992;2022-07-12T07:30:06;101408.72;;;26.32;53.99
23433;BME280;41331;45.412;10.992;2022-07-12T07:32:52;101416.81;;;26.60;53.35
23433;BME280;41331;45.412;10.992;2022-07-12T07:35:22;101419.38;;;26.82;53.18
23433;BME280;41331;45.412;10.992;2022-07-12T07:37:50;101425.31;;;26.88;51.58
23433;BME280;41331;45.412;10.992;2022-07-12T07:40:18;101408.53;;;26.88;51.27
23433;BME280;41331;45.412;10.992;2022-07-12T07:42:46;101408.88;;;27.27;51.14
23433;BME280;41331;45.412;10.992;2022-07-12T07:45:32;101410.50;;;26.91;51.77
23433;BME280;41331;45.412;10.992;2022-07-12T07:47:59;101405.34;;;26.89;51.24
23433;BME280;41331;45.412;10.992;2022-07-12T07:50:47;101415.66;;;26.13;52.86
23433;BME280;41331;45.412;10.992;2022-07-12T07:53:14;101405.38;;;26.51;52.39
23433;BME280;41331;45.412;10.992;2022-07-12T07:55:43;101405.25;;;26.62;52.39
23433;BME280;41331;45.412;10.992;2022-07-12T07:58:11;101394.25;;;27.16;51.16
23433;BME280;41331;45.412;10.992;2022-07-12T08:00:44;101398.97;;;27.50;50.80
23433;BME280;41331;45.412;10.992;2022-07-12T08:03:12;101403.97;;;27.35;49.96
23433;BME280;41331;45.412;10.992;2022-07-12T08:05:39;101399.69;;;26.96;50.33
23433;BME280;41331;45.412;10.992;2022-07-12T08:08:06;101397.25;;;27.29;50.10
23433;BME280;41331;45.412;10.992;2022-07-12T08:10:34;101392.59;;;27.49;50.36
23433;BME280;41331;45.412;10.992;2022-07-12T08:13:02;101394.19;;;28.24;47.65
23433;BME280;41331;45.412;10.992;2022-07-12T08:15:30;101387.53;;;28.61;46.73
23433;BME280;41331;45.412;10.992;2022-07-12T08:17:58;101393.09;;;27.95;45.98
23433;BME280;41331;45.412;10.992;2022-07-12T08:20:26;101385.69;;;27.57;49.55
23433;BME280;41331;45.412;10.992;2022-07-12T08:23:12;101380.69;;;27.96;48.17
23433;BME280;41331;45.412;10.992;2022-07-12T08:25:40;101381.41;;;28.67;47.33
23433;BME280;41331;45.412;10.992;2022-07-12T08:28:07;101391.41;;;28.24;46.38
23433;BME280;41331;45.412;10.992;2022-07-12T08:30:35;101384.88;;;28.54;46.82
23433;BME280;41331;45.412;10.992;2022-07-12T08:33:11;101386.88;;;28.30;45.58
23433;BME280;41331;45.412;10.992;2022-07-12T08:35:41;101392.91;;;28.52;45.29
23433;BME280;41331;45.412;10.992;2022-07-12T08:38:10;101388.44;;;28.35;44.62
23433;BME280;41331;45.412;10.992;2022-07-12T08:40:38;101380.03;;;28.35;45.29
23433;BME280;41331;45.412;10.992;2022-07-12T08:43:08;101393.00;;;28.88;44.83
23433;BME280;41331;45.412;10.992;2022-07-12T08:45:36;101399.72;;;28.51;43.93
23433;BME280;41331;45.412;10.992;2022-07-12T08:48:04;101395.84;;;28.45;45.16
23433;BME280;41331;45.412;10.992;2022-07-12T08:50:34;101399.16;;;28.80;43.28
23433;BME280;41331;45.412;10.992;2022-07-12T08:53:11;101402.13;;;28.93;42.79
23433;BME280;41331;45.412;10.992;2022-07-12T08:55:40;101395.91;;;29.21;40.51
23433;BME280;41331;45.412;10.992;2022-07-12T08:58:15;101400.09;;;29.49;41.76
23433;BME280;41331;45.412;10.992;2022-07-12T09:00:45;101403.31;;;29.84;39.46
23433;BME280;41331;45.412;10.992;2022-07-12T09:03:17;101404.84;;;29.16;42.03
23433;BME280;41331;45.412;10.992;2022-07-12T09:05:57;101406.06;;;29.15;41.60
23433;BME280;41331;45.412;10.992;2022-07-12T09:08:29;101397.53;;;28.82;42.04
23433;BME280;41331;45.412;10.992;2022-07-12T09:11:02;101396.81;;;29.54;40.75
23433;BME280;41331;45.412;10.992;2022-07-12T09:13:49;101407.75;;;29.12;39.60
23433;BME280;41331;45.412;10.992;2022-07-12T09:16:22;101404.94;;;29.12;40.12
23433;BME280;41331;45.412;10.992;2022-07-12T09:18:51;101418.56;;;29.10;40.39
23433;BME280;41331;45.412;10.992;2022-07-12T09:21:24;101407.72;;;28.73;40.81
23433;BME280;41331;45.412;10.992;2022-07-12T09:23:56;101407.06;;;28.85;41.01
23433;BME280;41331;45.412;10.992;2022-07-12T09:26:30;101405.66;;;29.53;39.57
23433;BME280;41331;45.412;10.992;2022-07-12T09:29:10;101409.13;;;29.40;39.81
23433;BME280;41331;45.412;10.992;2022-07-12T09:31:47;101396.13;;;29.30;40.85
23433;BME280;41331;45.412;10.992;2022-07-12T09:34:34;101400.75;;;30.06;39.77
23433;BME280;41331;45.412;10.992;2022-07-12T09:37:21;101394.72;;;30.07;41.33
23433;BME280;41331;45.412;10.992;2022-07-12T09:39:52;101399.41;;;29.09;43.14
23433;BME280;41331;45.412;10.992;2022-07-12T09:42:21;101392.34;;;29.21;44.09
23433;BME280;41331;45.412;10.992;2022-07-12T09:44:55;101384.41;;;29.35;43.96
23433;BME280;41331;45.412;10.992;2022-07-12T09:47:24;101382.56;;;29.45;43.56
23433;BME280;41331;45.412;10.992;2022-07-12T09:49:53;101381.84;;;29.41;43.72
23433;BME280;41331;45.412;10.992;2022-07-12T09:52:23;101382.72;;;29.58;42.94
23433;BME280;41331;45.412;10.992;2022-07-12T09:54:55;101387.88;;;29.76;42.24
23433;BME280;41331;45.412;10.992;2022-07-12T09:59:54;101389.41;;;29.44;41.58
23433;BME280;41331;45.412;10.992;2022-07-12T10:02:22;101387.09;;;29.23;40.16
23433;BME280;41331;45.412;10.992;2022-07-12T10:04:52;101388.78;;;29.89;39.64
23433;BME280;41331;45.412;10.992;2022-07-12T10:07:20;101367.69;;;29.97;39.59
23433;BME280;41331;45.412;10.992;2022-07-12T10:09:51;101384.91;;;29.66;41.28
23433;BME280;41331;45.412;10.992;2022-07-12T10:12:21;101371.47;;;30.23;41.08
23433;BME280;41331;45.412;10.992;2022-07-12T10:14:55;101370.28;;;30.37;39.89
23433;BME280;41331;45.412;10.992;2022-07-12T10:17:24;101369.91;;;29.89;38.70
23433;BME280;41331;45.412;10.992;2022-07-12T10:20:19;101380.34;;;29.20;41.66
23433;BME280;41331;45.412;10.992;2022-07-12T10:22:53;101373.53;;;29.57;40.74
23433;BME280;41331;45.412;10.992;2022-07-12T10:25:33;101372.28;;;30.07;39.10
23433;BME280;41331;45.412;10.992;2022-07-12T10:28:02;101371.34;;;30.43;38.47
23433;BME280;41331;45.412;10.992;2022-07-12T10:30:30;101371.84;;;30.83;37.77
23433;BME280;41331;45.412;10.992;2022-07-12T10:33:21;101362.16;;;30.55;39.04
23433;BME280;41331;45.412;10.992;2022-07-12T10:35:58;101367.31;;;30.73;37.98
23433;BME280;41331;45.412;10.992;2022-07-12T10:38:27;101367.63;;;29.84;38.94
23433;BME280;41331;45.412;10.992;2022-07-12T10:40:55;101364.22;;;29.60;39.44
23433;BME280;41331;45.412;10.992;2022-07-12T10:46:17;101356.22;;;30.53;37.21
23433;BME280;41331;45.412;10.992;2022-07-12T10:48:46;101361.84;;;30.53;36.57
23433;BME280;41331;45.412;10.992;2022-07-12T10:51:19;101345.47;;;31.19;35.69
23433;BME280;41331;45.412;10.992;2022-07-12T10:53:49;101350.22;;;31.35;36.45
23433;BME280;41331;45.412;10.992;2022-07-12T10:56:21;101352.34;;;31.43;35.67
23433;BME280;41331;45.412;10.992;2022-07-12T10:58:59;101340.25;;;31.17;37.01
23433;BME280;41331;45.412;10.992;2022-07-12T11:01:31;101339.06;;;31.18;36.70
23433;BME280;41331;45.412;10.992;2022-07-12T11:04:09;101332.38;;;30.87;37.12
23433;BME280;41331;45.412;10.992;2022-07-12T11:06:41;101327.38;;;31.45;37.53
23433;BME280;41331;45.412;10.992;2022-07-12T11:09:11;101339.63;;;31.13;37.39
23433;BME280;41331;45.412;10.992;2022-07-12T11:11:47;101320.16;;;30.64;37.91
23433;BME280;41331;45.412;10.992;2022-07-12T11:14:24;101326.66;;;30.90;37.28
23433;BME280;41331;45.412;10.992;2022-07-12T11:16:53;101322.53;;;30.66;37.42
23433;BME280;41331;45.412;10.992;2022-07-12T11:19:28;101327.44;;;30.49;37.98
23433;BME280;41331;45.412;10.992;2022-07-12T11:21:57;101318.13;;;31.45;37.12
23433;BME280;41331;45.412;10.992;2022-07-12T11:24:28;101318.03;;;31.49;36.57
23433;BME280;41331;45.412;10.992;2022-07-12T11:26:56;101322.63;;;31.55;36.14
23433;BME280;41331;45.412;10.992;2022-07-12T11:29:24;101315.38;;;31.80;35.52
23433;BME280;41331;45.412;10.992;2022-07-12T11:32:04;101326.75;;;31.76;35.33
23433;BME280;41331;45.412;10.992;2022-07-12T11:34:38;101314.59;;;31.79;34.70
23433;BME280;41331;45.412;10.992;2022-07-12T11:37:06;101316.16;;;31.80;34.80
23433;BME280;41331;45.412;10.992;2022-07-12T11:39:38;101313.66;;;31.95;34.99
23433;BME280;41331;45.412;10.992;2022-07-12T11:42:07;101325.31;;;31.84;34.92
23433;BME280;41331;45.412;10.992;2022-07-12T11:44:44;101312.13;;;31.81;35.12
23433;BME280;41331;45.412;10.992;2022-07-12T11:47:13;101317.00;;;31.55;35.75
23433;BME280;41331;45.412;10.992;2022-07-12T11:49:43;101311.38;;;31.17;36.84
23433;BME280;41331;45.412;10.992;2022-07-12T11:52:15;101312.16;;;31.05;37.16
23433;BME280;41331;45.412;10.992;2022-07-12T11:54:45;101308.53;;;30.91;36.38
23433;BME280;41331;45.412;10.992;2022-07-12T11:57:14;101296.88;;;31.06;36.38
23433;BME280;41331;45.412;10.992;2022-07-12T11:59:42;101308.44;;;31.59;35.87
23433;BME280;41331;45.412;10.992;2022-07-12T12:02:13;101296.94;;;31.66;35.30
23433;BME280;41331;45.412;10.992;2022-07-12T12:04:48;101302.25;;;31.51;35.51
23433;BME280;41331;45.412;10.992;2022-07-12T12:07:18;101303.94;;;30.85;37.27
23433;BME280;41331;45.412;10.992;2022-07-12T12:10:21;101299.13;;;30.98;37.19
23433;BME280;41331;45.412;10.992;2022-07-12T12:12:53;101294.97;;;31.15;37.27
23433;BME280;41331;45.412;10.992;2022-07-12T12:15:26;101287.53;;;31.47;36.99
23433;BME280;41331;45.412;10.992;2022-07-12T12:20:30;101287.09;;;31.49;36.42
23433;BME280;41331;45.412;10.992;2022-07-12T12:23:04;101288.47;;;31.79;36.16
23433;BME280;41331;45.412;10.992;2022-07-12T12:25:33;101285.34;;;32.11;35.34
23433;BME280;41331;45.412;10.992;2022-07-12T12:28:05;101270.47;;;31.89;36.39
23433;BME280;41331;45.412;10.992;2022-07-12T12:30:55;101274.72;;;31.81;36.42
23433;BME280;41331;45.412;10.992;2022-07-12T12:33:40;101276.56;;;31.75;36.47
23433;BME280;41331;45.412;10.992;2022-07-12T12:36:25;101265.22;;;31.65;36.97
23433;BME280;41331;45.412;10.992;2022-07-12T12:38:54;101267.13;;;32.25;35.66
23433;BME280;41331;45.412;10.992;2022-07-12T12:41:23;101264.47;;;32.43;35.52
23433;BME280;41331;45.412;10.992;2022-07-12T12:44:05;101253.69;;;31.85;35.98
23433;BME280;41331;45.412;10.992;2022-07-12T12:46:54;101250.19;;;31.94;36.65
23433;BME280;41331;45.412;10.992;2022-07-12T12:52:19;101255.69;;;32.19;36.75
23433;BME280;41331;45.412;10.992;2022-07-12T12:54:46;101238.66;;;32.45;36.29
23433;BME280;41331;45.412;10.992;2022-07-12T12:57:14;101245.84;;;32.24;36.65
23433;BME280;41331;45.412;10.992;2022-07-12T12:59:44;101231.72;;;32.15;36.75
23433;BME280;41331;45.412;10.992;2022-07-12T13:02:12;101239.78;;;32.04;37.02
23433;BME280;41331;45.412;10.992;2022-07-12T13:04:39;101229.69;;;31.81;37.47